European Causeway — C6RG7 — position and weather

sailwx.info

Track history (hours):
 
Tides and Currents Weather Stations Pressure Air Temp Water Temp Dewpoint Dewpoint Depression Visibility Wind Speed Wind Dir Waves Ship Positions

European Causeway

Operator: P & O Irish Sea

Last reported at 2017-Dec-11 17:00 UTC. Time now 2017-Dec-12 04:27 UTC.
Position N 54°54' W 005°33'.

Length 165 m; draft 5.5 m.

Type: Passenger vessel. MMSI: 311027000.

Date/timePositionNaut miles runAvg speedWind from/ knotsBaromVisibWave heightAir tempDewpointWater temp
2017-Dec-11 17:00N 54°54' W 005°33'917.4
2017-Dec-11 16:30N 54°51' W 005°48'0 0.9
2017-Dec-11 16:00N 54°51' W 005°48'0 0.0
2017-Dec-11 15:30N 54°51' W 005°48'5 9.6
2017-Dec-11 15:00N 54°53' W 005°41'816.4
2017-Dec-11 14:31N 54°57' W 005°28'816.4
2017-Dec-11 14:01N 55°00' W 005°15'714.0
2017-Dec-11 13:30N 54°59' W 005°03'2 3.7
2017-Dec-11 12:59N 54°58' W 005°01'0 0.0
2017-Dec-11 12:31N 54°58' W 005°01'510.1
2017-Dec-11 12:00N 55°02' W 005°07'917.7
2017-Dec-11 11:31N 54°58' W 005°21'918.0
2017-Dec-11 11:00N 54°54' W 005°35'816.1
2017-Dec-11 10:31N 54°51' W 005°48'0 0.2
2017-Dec-11 09:58N 54°51' W 005°48'0 0.0
2017-Dec-11 09:29N 54°51' W 005°48'4 8.8
2017-Dec-11 09:00N 54°53' W 005°42'815.5
2017-Dec-11 08:30N 54°57' W 005°31'918.4
2017-Dec-11 08:00N 55°00' W 005°15'714.5
2017-Dec-11 07:30N 54°59' W 005°03'2 3.5
2017-Dec-11 07:00N 54°58' W 005°01'0 0.0
2017-Dec-11 06:30N 54°58' W 005°01'0 0.0
2017-Dec-11 06:00N 54°58' W 005°01'510.5
2017-Dec-11 05:30N 55°02' W 005°07'918.0
2017-Dec-11 05:01N 54°57' W 005°21'919.0
2017-Dec-11 04:31N 54°54' W 005°37'714.8
2017-Dec-11 04:00N 54°51' W 005°48'0 0.1
2017-Dec-11 03:30N 54°51' W 005°48'0 0.0
2017-Dec-11 03:00N 54°51' W 005°48'0 0.0
2017-Dec-11 02:30N 54°51' W 005°48'0 0.0
2017-Dec-11 02:00N 54°51' W 005°48'0 0.0
2017-Dec-11 01:30N 54°51' W 005°48'0 0.0
2017-Dec-11 01:00N 54°51' W 005°48'5 9.3
2017-Dec-11 00:30N 54°53' W 005°41'918.8
2017-Dec-11 00:00N 54°58' W 005°26'1019.0
2017-Dec-10 23:30N 55°02' W 005°11'612.7
2017-Dec-10 23:01N 54°58' W 005°02'1 1.5
2017-Dec-10 22:30N 54°58' W 005°01'0 0.0
2017-Dec-10 22:00N 54°58' W 005°01'5 9.0
2017-Dec-10 21:27N 55°02' W 005°07'920.2
2017-Dec-10 21:01N 54°58' W 005°21'1020.2
2017-Dec-10 20:30N 54°54' W 005°37'714.0
2017-Dec-10 20:01N 54°51' W 005°48'0 0.1
2017-Dec-10 19:29N 54°51' W 005°48'0 0.0
2017-Dec-10 18:59N 54°51' W 005°48'0 0.0
2017-Dec-10 18:29N 54°51' W 005°48'4 9.3
2017-Dec-10 18:00N 54°53' W 005°42'815.4
2017-Dec-10 17:30N 54°57' W 005°30'816.1
2017-Dec-10 17:00N 55°00' W 005°17'815.1
2017-Dec-10 16:29N 54°59' W 005°03'2 3.9
2017-Dec-10 16:01N 54°58' W 005°01'0 0.1
2017-Dec-10 15:30N 54°58' W 005°01'0 0.1
2017-Dec-10 15:00N 54°58' W 005°01'510.7
2017-Dec-10 14:30N 55°02' W 005°07'816.7
2017-Dec-10 14:00N 54°58' W 005°21'917.8
2017-Dec-10 13:31N 54°54' W 005°35'816.4
2017-Dec-10 13:00N 54°51' W 005°48'0 0.4
2017-Dec-10 12:25N 54°51' W 005°48'0 0.0
2017-Dec-10 11:58N 54°51' W 005°48'0 0.0
2017-Dec-10 11:28N 54°51' W 005°48'0 0.0
2017-Dec-10 10:58N 54°51' W 005°48'0 0.0
2017-Dec-10 10:28N 54°51' W 005°48'0 0.0
2017-Dec-10 09:55N 54°51' W 005°48'0 0.0
2017-Dec-10 09:25N 54°51' W 005°48'3 6.2
2017-Dec-10 09:00N 54°53' W 005°45'918.4
2017-Dec-10 08:30N 54°57' W 005°30'917.9
2017-Dec-10 08:00N 55°00' W 005°16'714.6
2017-Dec-10 07:30N 54°59' W 005°03'2 3.9
2017-Dec-10 07:00N 54°58' W 005°01'0 0.0
2017-Dec-10 06:30N 54°58' W 005°01'0 0.0
2017-Dec-10 06:00N 54°58' W 005°01'0 0.0
2017-Dec-10 05:30N 54°58' W 005°01'0 0.0
2017-Dec-10 05:00N 54°58' W 005°01'0 0.0
2017-Dec-10 04:30N 54°58' W 005°01'0 0.0
2017-Dec-10 04:00N 54°58' W 005°01'0 0.0
2017-Dec-10 03:26N 54°58' W 005°01'0 0.0
2017-Dec-10 03:00N 54°58' W 005°01'0 0.0
2017-Dec-10 02:30N 54°58' W 005°01'0 0.0
2017-Dec-10 02:00N 54°58' W 005°01'0 0.0
2017-Dec-10 01:30N 54°58' W 005°01'0 0.0
2017-Dec-10 01:01N 54°58' W 005°01'0 0.0
2017-Dec-10 00:31N 54°58' W 005°01'0 0.0
2017-Dec-10 00:00N 54°58' W 005°01'0 0.0
2017-Dec-09 23:30N 54°58' W 005°01'0 0.0
2017-Dec-09 23:01N 54°58' W 005°01'0 0.0
2017-Dec-09 22:31N 54°58' W 005°01'0 0.0
2017-Dec-09 22:00N 54°58' W 005°01'510.1
2017-Dec-09 21:30N 55°02' W 005°07'917.5
2017-Dec-09 21:00N 54°59' W 005°21'918.1
2017-Dec-09 20:30N 54°54' W 005°35'816.5
2017-Dec-09 20:00N 54°51' W 005°48'0 0.2
2017-Dec-09 19:29N 54°51' W 005°48'0 0.0
2017-Dec-09 18:56N 54°51' W 005°48'0 0.0
2017-Dec-09 18:30N 54°51' W 005°48'4 8.4
2017-Dec-09 18:00N 54°53' W 005°42'816.2
2017-Dec-09 17:30N 54°57' W 005°29'816.5
2017-Dec-09 17:00N 55°00' W 005°16'814.4
2017-Dec-09 16:28N 54°59' W 005°03'2 3.6
2017-Dec-09 16:00N 54°58' W 005°01'0 0.0
2017-Dec-09 15:30N 54°58' W 005°01'5 9.7
2017-Dec-09 14:57N 55°02' W 005°08'817.6
2017-Dec-09 14:30N 54°58' W 005°20'919.0
2017-Dec-09 14:00N 54°54' W 005°35'816.6
2017-Dec-09 13:31N 54°51' W 005°48'0 0.2
2017-Dec-09 12:58N 54°51' W 005°48'0 0.0
2017-Dec-09 12:31N 54°51' W 005°48'611.3
2017-Dec-09 12:01N 54°54' W 005°40'917.4
2017-Dec-09 11:31N 54°58' W 005°26'918.2
2017-Dec-09 11:01N 55°01' W 005°11'611.8
2017-Dec-09 10:30N 54°58' W 005°02'1 1.6
2017-Dec-09 09:58N 54°58' W 005°01'0 0.0
2017-Dec-09 09:29N 54°58' W 005°01'5 9.6
2017-Dec-09 08:55N 55°02' W 005°07'818.4
2017-Dec-09 08:30N 54°58' W 005°20'918.9
2017-Dec-09 08:00N 54°55' W 005°35'816.9
2017-Dec-09 07:30N 54°51' W 005°48'0 0.2
2017-Dec-09 06:49N 54°51' W 005°48'0 0.0
2017-Dec-09 06:22N 54°51' W 005°48'0 0.0
2017-Dec-09 05:59N 54°51' W 005°48'4 8.8
2017-Dec-09 05:30N 54°53' W 005°42'1020.0
2017-Dec-09 05:00N 54°58' W 005°26'1019.6
2017-Dec-09 04:30N 55°02' W 005°10'713.3
2017-Dec-09 04:00N 54°58' W 005°01'0 0.0
2017-Dec-09 03:30N 54°58' W 005°01'0 0.0
2017-Dec-09 03:00N 54°58' W 005°01'0 0.0
2017-Dec-09 02:30N 54°58' W 005°01'0 0.0
2017-Dec-09 02:00N 54°58' W 005°01'510.2
2017-Dec-09 01:29N 55°02' W 005°07'817.3
2017-Dec-09 01:00N 54°58' W 005°20'1019.1
2017-Dec-09 00:30N 54°54' W 005°35'814.8
2017-Dec-08 23:59N 54°51' W 005°48'0 0.1
2017-Dec-08 23:29N 54°51' W 005°48'0 0.0
2017-Dec-08 22:59N 54°51' W 005°48'0 0.0
2017-Dec-08 22:29N 54°51' W 005°48'0 0.0
2017-Dec-08 22:00N 54°51' W 005°48'4 8.9
2017-Dec-08 21:30N 54°53' W 005°42'1020.0
2017-Dec-08 21:00N 54°58' W 005°27'1019.2
2017-Dec-08 20:30N 55°02' W 005°11'613.0
2017-Dec-08 20:01N 54°58' W 005°02'1 1.1
2017-Dec-08 19:27N 54°58' W 005°01'0 0.0
2017-Dec-08 18:54N 54°58' W 005°01'0 0.0
2017-Dec-08 18:30N 54°58' W 005°01'5 9.5
2017-Dec-08 17:59N 55°02' W 005°06'918.3
2017-Dec-08 17:30N 54°58' W 005°20'917.9
2017-Dec-08 17:00N 54°55' W 005°35'816.5
2017-Dec-08 16:30N 54°51' W 005°48'0 0.4
2017-Dec-08 15:58N 54°51' W 005°48'0 0.0
2017-Dec-08 15:29N 54°51' W 005°48'511.6
2017-Dec-08 15:00N 54°54' W 005°40'1122.0
2017-Dec-08 14:30N 54°59' W 005°23'1216.1
2017-Dec-08 13:47N 54°59' W 005°03'1 1.1
2017-Dec-08 12:25N 54°58' W 005°01'612.7
2017-Dec-08 11:59N 55°02' W 005°08'816.8
2017-Dec-08 11:30N 54°58' W 005°20'918.2
2017-Dec-08 11:00N 54°54' W 005°35'816.5
2017-Dec-08 10:30N 54°51' W 005°48'0 0.2
2017-Dec-08 09:55N 54°51' W 005°48'0 0.0
2017-Dec-08 09:29N 54°51' W 005°48'511.1
2017-Dec-08 09:00N 54°54' W 005°40'1019.7
2017-Dec-08 08:30N 54°58' W 005°24'1019.8
2017-Dec-08 08:00N 55°02' W 005°08'6 7.2
2017-Dec-08 07:11N 54°58' W 005°01'0 0.0
2017-Dec-08 06:56N 54°58' W 005°01'0 0.0
2017-Dec-08 06:29N 54°58' W 005°01'0 0.0
2017-Dec-08 05:56N 54°58' W 005°01'5 8.9
2017-Dec-08 05:23N 55°02' W 005°06'820.3
2017-Dec-08 05:00N 54°59' W 005°19'1020.0
2017-Dec-08 04:30N 54°54' W 005°35'816.7
2017-Dec-08 04:00N 54°51' W 005°48'0 0.2
2017-Dec-08 03:27N 54°51' W 005°48'0 0.0
2017-Dec-08 03:00N 54°51' W 005°48'0 0.0
2017-Dec-08 02:27N 54°51' W 005°48'0 0.0
2017-Dec-08 01:58N 54°51' W 005°48'3 7.0
2017-Dec-08 01:31N 54°53' W 005°43'1019.7
2017-Dec-08 01:01N 54°57' W 005°28'1020.0
2017-Dec-08 00:31N 55°01' W 005°12'713.6
2017-Dec-08 00:00N 54°58' W 005°02'0 0.9
2017-Dec-07 23:29N 54°58' W 005°01'0 0.0
2017-Dec-07 22:50N 54°58' W 005°01'0 0.0
2017-Dec-07 22:28N 54°58' W 005°01'2811.9
2017-Dec-07 20:08N 54°51' W 005°48'0 1.1
2017-Dec-07 20:00N 54°51' W 005°48'0 0.0
2017-Dec-07 19:30N 54°51' W 005°48'0 0.0
2017-Dec-07 19:00N 54°51' W 005°48'0 0.0
2017-Dec-07 18:30N 54°51' W 005°48'612.5
2017-Dec-07 18:00N 54°54' W 005°39'1019.4
2017-Dec-07 17:30N 54°59' W 005°24'918.1
2017-Dec-07 17:00N 55°02' W 005°09'612.8
2017-Dec-07 16:30N 54°58' W 005°01'0 0.0
2017-Dec-07 16:00N 54°58' W 005°01'0 0.0
2017-Dec-07 15:30N 54°58' W 005°01'5 8.6
2017-Dec-07 14:54N 55°02' W 005°07'820.4
2017-Dec-07 14:30N 54°59' W 005°20'1020.3
2017-Dec-07 14:00N 54°55' W 005°37'815.7
2017-Dec-07 13:30N 54°51' W 005°48'0 0.0
2017-Dec-07 12:58N 54°51' W 005°48'0 0.0
2017-Dec-07 12:29N 54°51' W 005°48'5 9.9
2017-Dec-07 12:00N 54°53' W 005°41'1019.6
2017-Dec-07 11:30N 54°58' W 005°26'918.2
2017-Dec-07 11:01N 55°02' W 005°12'714.0
2017-Dec-07 10:31N 54°58' W 005°01'0 0.3
2017-Dec-07 09:46N 54°58' W 005°01'0 0.0
2017-Dec-07 09:29N 54°58' W 005°01'610.1
2017-Dec-07 08:54N 55°02' W 005°09'616.5
2017-Dec-07 08:31N 54°59' W 005°19'918.4
2017-Dec-07 08:01N 54°55' W 005°33'918.1
2017-Dec-07 07:30N 54°51' W 005°48'1 1.2
2017-Dec-07 07:00N 54°51' W 005°48'0 0.0
2017-Dec-07 06:30N 54°51' W 005°48'0 0.0
2017-Dec-07 06:00N 54°51' W 005°48'3 6.6
2017-Dec-07 05:30N 54°53' W 005°43'1121.2
2017-Dec-07 05:00N 54°58' W 005°27'1119.9
2017-Dec-07 04:28N 55°02' W 005°10'613.6
2017-Dec-07 04:00N 54°58' W 005°01'0 0.0
2017-Dec-07 03:30N 54°58' W 005°01'0 0.0
2017-Dec-07 03:00N 54°58' W 005°01'0 0.0
2017-Dec-07 02:30N 54°58' W 005°01'0 0.0
2017-Dec-07 01:58N 54°58' W 005°01'6 8.5
2017-Dec-07 01:17N 55°02' W 005°08'621.6
2017-Dec-07 01:00N 54°59' W 005°18'1121.2
2017-Dec-07 00:30N 54°54' W 005°35'816.7
2017-Dec-07 00:00N 54°51' W 005°48'0 0.0
2017-Dec-06 23:30N 54°51' W 005°48'0 0.0
2017-Dec-06 23:00N 54°51' W 005°48'0 0.0
2017-Dec-06 22:30N 54°51' W 005°48'0 0.0
2017-Dec-06 22:00N 54°51' W 005°48'510.7
2017-Dec-06 21:30N 54°54' W 005°40'918.9
2017-Dec-06 21:00N 54°58' W 005°26'  
2017-Dec-04 10:29N 54°51' W 005°48'0 0.4
2017-Dec-04 09:59N 54°51' W 005°48'0 0.0
2017-Dec-04 09:29N 54°51' W 005°48'3 5.9
2017-Dec-04 09:00N 54°53' W 005°44'917.2
2017-Dec-04 08:30N 54°56' W 005°30'917.9
2017-Dec-04 08:00N 55°00' W 005°16'814.0
2017-Dec-04 07:27N 54°59' W 005°03'2 4.0
2017-Dec-04 07:00N 54°58' W 005°01'0 0.0
2017-Dec-04 06:30N 54°58' W 005°01'0 0.2
2017-Dec-04 05:59N 54°58' W 005°01'510.2
2017-Dec-04 05:28N 55°01' W 005°07'817.5
2017-Dec-04 05:01N 54°58' W 005°20'1019.0
2017-Dec-04 04:30N 54°54' W 005°35'816.0
2017-Dec-04 04:01N 54°51' W 005°48'0 0.2
2017-Dec-04 03:28N 54°51' W 005°48'0 0.0
2017-Dec-04 02:55N 54°51' W 005°48'0 0.0
2017-Dec-04 02:22N 54°51' W 005°48'0 0.0
2017-Dec-04 01:58N 54°51' W 005°48'0 0.0
2017-Dec-04 01:28N 54°51' W 005°48'0 0.0
2017-Dec-04 01:01N 54°51' W 005°48'611.1
2017-Dec-04 00:28N 54°54' W 005°39'919.3
2017-Dec-04 00:01N 54°58' W 005°25'1018.0
2017-Dec-03 23:26N 55°02' W 005°08'512.2
2017-Dec-03 23:01N 54°58' W 005°02'1 1.0
2017-Dec-03 22:24N 54°58' W 005°01'0 0.0
2017-Dec-03 21:59N 54°58' W 005°01'5 9.4
2017-Dec-03 21:26N 55°01' W 005°07'716.9
2017-Dec-03 21:00N 54°58' W 005°19'918.2
2017-Dec-03 20:30N 54°54' W 005°33'918.7
2017-Dec-03 20:01N 54°51' W 005°48'0 0.2
2017-Dec-03 19:26N 54°51' W 005°48'0 0.0
2017-Dec-03 18:59N 54°51' W 005°48'0 0.0
2017-Dec-03 18:29N 54°51' W 005°48'3 6.8
2017-Dec-03 18:01N 54°53' W 005°44'917.5
2017-Dec-03 17:30N 54°57' W 005°30'917.8
2017-Dec-03 17:00N 55°00' W 005°16'713.5
2017-Dec-03 16:27N 54°59' W 005°03'2 1.1
2017-Dec-03 14:56N 54°58' W 005°01'610.4
2017-Dec-03 14:23N 55°02' W 005°08'820.7
2017-Dec-03 14:00N 54°58' W 005°20'1020.4
2017-Dec-03 13:30N 54°54' W 005°37'714.4
2017-Dec-03 13:00N 54°51' W 005°48'0 0.0
2017-Dec-03 12:29N 54°51' W 005°48'0 0.0
2017-Dec-03 11:59N 54°51' W 005°48'0 0.0
2017-Dec-03 11:29N 54°51' W 005°48'0 0.0
2017-Dec-03 10:59N 54°51' W 005°48'0 0.0
2017-Dec-03 10:29N 54°51' W 005°48'0 0.0
2017-Dec-03 09:59N 54°51' W 005°48'0 0.0
2017-Dec-03 09:29N 54°51' W 005°48'4 8.5
2017-Dec-03 08:59N 54°53' W 005°42'817.6
2017-Dec-03 08:30N 54°56' W 005°28'918.1
2017-Dec-03 08:00N 55°01' W 005°14'712.7
2017-Dec-03 07:28N 54°59' W 005°03'1 1.2
2017-Dec-03 06:13N 54°58' W 005°01'0 0.0
2017-Dec-03 05:31N 54°58' W 005°01'0 0.0
2017-Dec-03 05:13N 54°58' W 005°01'0 0.0
2017-Dec-03 04:55N 54°58' W 005°01'0 0.0
2017-Dec-03 04:19N 54°58' W 005°01'0 0.0
2017-Dec-03 03:49N 54°58' W 005°01'0 0.0
2017-Dec-03 03:19N 54°58' W 005°01'0 0.0
2017-Dec-03 02:55N 54°58' W 005°01'0 0.0
2017-Dec-03 01:43N 54°58' W 005°01'0 0.0
2017-Dec-03 01:25N 54°58' W 005°01'0 0.0
2017-Dec-02 21:56N 54°58' W 005°01'713.7
2017-Dec-02 21:27N 55°01' W 005°11'818.1
2017-Dec-02 21:00N 54°57' W 005°23'1020.1
2017-Dec-02 20:30N 54°53' W 005°40'510.3
2017-Dec-02 19:59N 54°51' W 005°48'0 0.0
2017-Dec-02 19:29N 54°51' W 005°48'0 0.0
2017-Dec-02 18:56N 54°51' W 005°48'0 0.0
2017-Dec-02 18:29N 54°51' W 005°48'2 3.3
2017-Dec-02 18:00N 54°52' W 005°47'1019.2
2017-Dec-02 17:28N 54°56' W 005°31'920.0
2017-Dec-02 17:00N 54°60' W 005°16'714.7
2017-Dec-02 16:30N 54°59' W 005°03'2 3.1
2017-Dec-02 15:57N 54°58' W 005°01'0 0.0
2017-Dec-02 15:27N 54°58' W 005°01'5 9.1
2017-Dec-02 14:53N 55°02' W 005°07'717.1
2017-Dec-02 14:30N 54°59' W 005°17'917.3
2017-Dec-02 14:00N 54°55' W 005°31'1017.6
2017-Dec-02 13:27N 54°52' W 005°47'1 2.6
2017-Dec-02 12:58N 54°51' W 005°48'0 0.0
2017-Dec-02 12:28N 54°51' W 005°48'4 7.4
2017-Dec-02 11:59N 54°53' W 005°43'818.1
2017-Dec-02 11:31N 54°57' W 005°30'917.8
2017-Dec-02 11:00N 55°00' W 005°15'714.0
2017-Dec-02 10:28N 54°59' W 005°02'1 1.2
2017-Dec-02 09:19N 54°58' W 005°01'611.5
2017-Dec-02 08:49N 55°02' W 005°09'617.7
2017-Dec-02 08:30N 54°59' W 005°17'918.2
2017-Dec-02 08:00N 54°55' W 005°31'1019.2
2017-Dec-02 07:30N 54°52' W 005°47'1 2.1
2017-Dec-02 07:00N 54°51' W 005°48'0 0.0
2017-Dec-02 06:30N 54°51' W 005°48'0 0.0
2017-Dec-02 06:00N 54°51' W 005°48'611.4
2017-Dec-02 05:30N 54°54' W 005°40'1019.8
2017-Dec-02 05:00N 54°58' W 005°24'1020.3
2017-Dec-02 04:30N 55°02' W 005°08'510.0
2017-Dec-02 04:00N 54°58' W 005°02'1 1.1
2017-Dec-02 03:30N 54°58' W 005°01'0 0.0
2017-Dec-02 03:00N 54°58' W 005°01'0 0.0
2017-Dec-02 02:31N 54°58' W 005°01'0 0.0
2017-Dec-02 02:01N 54°58' W 005°01'5 9.4
2017-Dec-02 01:29N 55°02' W 005°06'918.2
2017-Dec-02 01:00N 54°58' W 005°20'918.5
2017-Dec-02 00:30N 54°54' W 005°35'816.0
2017-Dec-02 00:01N 54°51' W 005°48'0 0.2
2017-Dec-01 23:30N 54°51' W 005°48'0 0.0
2017-Dec-01 23:00N 54°51' W 005°48'0 0.0
2017-Dec-01 22:30N 54°51' W 005°48'0 0.0
2017-Dec-01 22:00N 54°51' W 005°48'4 8.3
2017-Dec-01 21:31N 54°53' W 005°42'917.5
2017-Dec-01 21:01N 54°57' W 005°28'917.7
2017-Dec-01 20:30N 55°01' W 005°14'714.1
2017-Dec-01 20:00N 54°59' W 005°03'1 2.5
2017-Dec-01 19:26N 54°58' W 005°01'0 0.0
2017-Dec-01 18:56N 54°58' W 005°01'0 0.0
2017-Dec-01 18:27N 54°58' W 005°01'510.0
2017-Dec-01 17:55N 55°01' W 005°08'717.0
2017-Dec-01 17:30N 54°59' W 005°18'918.1
2017-Dec-01 17:00N 54°55' W 005°33'  
Track history (hours):
 
Tides and Currents Weather Stations Pressure Air Temp Water Temp Dewpoint Dewpoint Depression Visibility Wind Speed Wind Dir Waves Ship Positions

European Causeway

Operator: P & O Irish Sea

Last reported at 2017-Dec-11 17:00 UTC. Time now 2017-Dec-12 04:27 UTC.
Position N 54°54' W 005°33'.

Length 165 m; draft 5.5 m.

Type: Passenger vessel. MMSI: 311027000.

Date/timePositionNaut miles runAvg speedWind from/ knotsBaromVisibWave heightAir tempDewpointWater temp
2017-Dec-11 17:00N 54°54' W 005°33'917.4
2017-Dec-11 16:30N 54°51' W 005°48'0 0.9
2017-Dec-11 16:00N 54°51' W 005°48'0 0.0
2017-Dec-11 15:30N 54°51' W 005°48'5 9.6
2017-Dec-11 15:00N 54°53' W 005°41'816.4
2017-Dec-11 14:31N 54°57' W 005°28'816.4
2017-Dec-11 14:01N 55°00' W 005°15'714.0
2017-Dec-11 13:30N 54°59' W 005°03'2 3.7
2017-Dec-11 12:59N 54°58' W 005°01'0 0.0
2017-Dec-11 12:31N 54°58' W 005°01'510.1
2017-Dec-11 12:00N 55°02' W 005°07'917.7
2017-Dec-11 11:31N 54°58' W 005°21'918.0
2017-Dec-11 11:00N 54°54' W 005°35'816.1
2017-Dec-11 10:31N 54°51' W 005°48'0 0.2
2017-Dec-11 09:58N 54°51' W 005°48'0 0.0
2017-Dec-11 09:29N 54°51' W 005°48'4 8.8
2017-Dec-11 09:00N 54°53' W 005°42'815.5
2017-Dec-11 08:30N 54°57' W 005°31'918.4
2017-Dec-11 08:00N 55°00' W 005°15'714.5
2017-Dec-11 07:30N 54°59' W 005°03'2 3.5
2017-Dec-11 07:00N 54°58' W 005°01'0 0.0
2017-Dec-11 06:30N 54°58' W 005°01'0 0.0
2017-Dec-11 06:00N 54°58' W 005°01'510.5
2017-Dec-11 05:30N 55°02' W 005°07'918.0
2017-Dec-11 05:01N 54°57' W 005°21'919.0
2017-Dec-11 04:31N 54°54' W 005°37'714.8
2017-Dec-11 04:00N 54°51' W 005°48'0 0.1
2017-Dec-11 03:30N 54°51' W 005°48'0 0.0
2017-Dec-11 03:00N 54°51' W 005°48'0 0.0
2017-Dec-11 02:30N 54°51' W 005°48'0 0.0
2017-Dec-11 02:00N 54°51' W 005°48'0 0.0
2017-Dec-11 01:30N 54°51' W 005°48'0 0.0
2017-Dec-11 01:00N 54°51' W 005°48'5 9.3
2017-Dec-11 00:30N 54°53' W 005°41'918.8
2017-Dec-11 00:00N 54°58' W 005°26'1019.0
2017-Dec-10 23:30N 55°02' W 005°11'612.7
2017-Dec-10 23:01N 54°58' W 005°02'1 1.5
2017-Dec-10 22:30N 54°58' W 005°01'0 0.0
2017-Dec-10 22:00N 54°58' W 005°01'5 9.0
2017-Dec-10 21:27N 55°02' W 005°07'920.2
2017-Dec-10 21:01N 54°58' W 005°21'1020.2
2017-Dec-10 20:30N 54°54' W 005°37'714.0
2017-Dec-10 20:01N 54°51' W 005°48'0 0.1
2017-Dec-10 19:29N 54°51' W 005°48'0 0.0
2017-Dec-10 18:59N 54°51' W 005°48'0 0.0
2017-Dec-10 18:29N 54°51' W 005°48'4 9.3
2017-Dec-10 18:00N 54°53' W 005°42'815.4
2017-Dec-10 17:30N 54°57' W 005°30'816.1
2017-Dec-10 17:00N 55°00' W 005°17'815.1
2017-Dec-10 16:29N 54°59' W 005°03'2 3.9
2017-Dec-10 16:01N 54°58' W 005°01'0 0.1
2017-Dec-10 15:30N 54°58' W 005°01'0 0.1
2017-Dec-10 15:00N 54°58' W 005°01'510.7
2017-Dec-10 14:30N 55°02' W 005°07'816.7
2017-Dec-10 14:00N 54°58' W 005°21'917.8
2017-Dec-10 13:31N 54°54' W 005°35'816.4
2017-Dec-10 13:00N 54°51' W 005°48'0 0.4
2017-Dec-10 12:25N 54°51' W 005°48'0 0.0
2017-Dec-10 11:58N 54°51' W 005°48'0 0.0
2017-Dec-10 11:28N 54°51' W 005°48'0 0.0
2017-Dec-10 10:58N 54°51' W 005°48'0 0.0
2017-Dec-10 10:28N 54°51' W 005°48'0 0.0
2017-Dec-10 09:55N 54°51' W 005°48'0 0.0
2017-Dec-10 09:25N 54°51' W 005°48'3 6.2
2017-Dec-10 09:00N 54°53' W 005°45'918.4
2017-Dec-10 08:30N 54°57' W 005°30'917.9
2017-Dec-10 08:00N 55°00' W 005°16'714.6
2017-Dec-10 07:30N 54°59' W 005°03'2 3.9
2017-Dec-10 07:00N 54°58' W 005°01'0 0.0
2017-Dec-10 06:30N 54°58' W 005°01'0 0.0
2017-Dec-10 06:00N 54°58' W 005°01'0 0.0
2017-Dec-10 05:30N 54°58' W 005°01'0 0.0
2017-Dec-10 05:00N 54°58' W 005°01'0 0.0
2017-Dec-10 04:30N 54°58' W 005°01'0 0.0
2017-Dec-10 04:00N 54°58' W 005°01'0 0.0
2017-Dec-10 03:26N 54°58' W 005°01'0 0.0
2017-Dec-10 03:00N 54°58' W 005°01'0 0.0
2017-Dec-10 02:30N 54°58' W 005°01'0 0.0
2017-Dec-10 02:00N 54°58' W 005°01'0 0.0
2017-Dec-10 01:30N 54°58' W 005°01'0 0.0
2017-Dec-10 01:01N 54°58' W 005°01'0 0.0
2017-Dec-10 00:31N 54°58' W 005°01'0 0.0
2017-Dec-10 00:00N 54°58' W 005°01'0 0.0
2017-Dec-09 23:30N 54°58' W 005°01'0 0.0
2017-Dec-09 23:01N 54°58' W 005°01'0 0.0
2017-Dec-09 22:31N 54°58' W 005°01'0 0.0
2017-Dec-09 22:00N 54°58' W 005°01'510.1
2017-Dec-09 21:30N 55°02' W 005°07'917.5
2017-Dec-09 21:00N 54°59' W 005°21'918.1
2017-Dec-09 20:30N 54°54' W 005°35'816.5
2017-Dec-09 20:00N 54°51' W 005°48'0 0.2
2017-Dec-09 19:29N 54°51' W 005°48'0 0.0
2017-Dec-09 18:56N 54°51' W 005°48'0 0.0
2017-Dec-09 18:30N 54°51' W 005°48'4 8.4
2017-Dec-09 18:00N 54°53' W 005°42'816.2
2017-Dec-09 17:30N 54°57' W 005°29'816.5
2017-Dec-09 17:00N 55°00' W 005°16'814.4
2017-Dec-09 16:28N 54°59' W 005°03'2 3.6
2017-Dec-09 16:00N 54°58' W 005°01'0 0.0
2017-Dec-09 15:30N 54°58' W 005°01'5 9.7
2017-Dec-09 14:57N 55°02' W 005°08'817.6
2017-Dec-09 14:30N 54°58' W 005°20'919.0
2017-Dec-09 14:00N 54°54' W 005°35'816.6
2017-Dec-09 13:31N 54°51' W 005°48'0 0.2
2017-Dec-09 12:58N 54°51' W 005°48'0 0.0
2017-Dec-09 12:31N 54°51' W 005°48'611.3
2017-Dec-09 12:01N 54°54' W 005°40'917.4
2017-Dec-09 11:31N 54°58' W 005°26'918.2
2017-Dec-09 11:01N 55°01' W 005°11'611.8
2017-Dec-09 10:30N 54°58' W 005°02'1 1.6
2017-Dec-09 09:58N 54°58' W 005°01'0 0.0
2017-Dec-09 09:29N 54°58' W 005°01'5 9.6
2017-Dec-09 08:55N 55°02' W 005°07'818.4
2017-Dec-09 08:30N 54°58' W 005°20'918.9
2017-Dec-09 08:00N 54°55' W 005°35'816.9
2017-Dec-09 07:30N 54°51' W 005°48'0 0.2
2017-Dec-09 06:49N 54°51' W 005°48'0 0.0
2017-Dec-09 06:22N 54°51' W 005°48'0 0.0
2017-Dec-09 05:59N 54°51' W 005°48'4 8.8
2017-Dec-09 05:30N 54°53' W 005°42'1020.0
2017-Dec-09 05:00N 54°58' W 005°26'1019.6
2017-Dec-09 04:30N 55°02' W 005°10'713.3
2017-Dec-09 04:00N 54°58' W 005°01'0 0.0
2017-Dec-09 03:30N 54°58' W 005°01'0 0.0
2017-Dec-09 03:00N 54°58' W 005°01'0 0.0
2017-Dec-09 02:30N 54°58' W 005°01'0 0.0
2017-Dec-09 02:00N 54°58' W 005°01'510.2
2017-Dec-09 01:29N 55°02' W 005°07'817.3
2017-Dec-09 01:00N 54°58' W 005°20'1019.1
2017-Dec-09 00:30N 54°54' W 005°35'814.8
2017-Dec-08 23:59N 54°51' W 005°48'0 0.1
2017-Dec-08 23:29N 54°51' W 005°48'0 0.0
2017-Dec-08 22:59N 54°51' W 005°48'0 0.0
2017-Dec-08 22:29N 54°51' W 005°48'0 0.0
2017-Dec-08 22:00N 54°51' W 005°48'4 8.9
2017-Dec-08 21:30N 54°53' W 005°42'1020.0
2017-Dec-08 21:00N 54°58' W 005°27'1019.2
2017-Dec-08 20:30N 55°02' W 005°11'613.0
2017-Dec-08 20:01N 54°58' W 005°02'1 1.1
2017-Dec-08 19:27N 54°58' W 005°01'0 0.0
2017-Dec-08 18:54N 54°58' W 005°01'0 0.0
2017-Dec-08 18:30N 54°58' W 005°01'5 9.5
2017-Dec-08 17:59N 55°02' W 005°06'918.3
2017-Dec-08 17:30N 54°58' W 005°20'917.9
2017-Dec-08 17:00N 54°55' W 005°35'816.5
2017-Dec-08 16:30N 54°51' W 005°48'0 0.4
2017-Dec-08 15:58N 54°51' W 005°48'0 0.0
2017-Dec-08 15:29N 54°51' W 005°48'511.6
2017-Dec-08 15:00N 54°54' W 005°40'1122.0
2017-Dec-08 14:30N 54°59' W 005°23'1216.1
2017-Dec-08 13:47N 54°59' W 005°03'1 1.1
2017-Dec-08 12:25N 54°58' W 005°01'612.7
2017-Dec-08 11:59N 55°02' W 005°08'816.8
2017-Dec-08 11:30N 54°58' W 005°20'918.2
2017-Dec-08 11:00N 54°54' W 005°35'816.5
2017-Dec-08 10:30N 54°51' W 005°48'0 0.2
2017-Dec-08 09:55N 54°51' W 005°48'0 0.0
2017-Dec-08 09:29N 54°51' W 005°48'511.1
2017-Dec-08 09:00N 54°54' W 005°40'1019.7
2017-Dec-08 08:30N 54°58' W 005°24'1019.8
2017-Dec-08 08:00N 55°02' W 005°08'6 7.2
2017-Dec-08 07:11N 54°58' W 005°01'0 0.0
2017-Dec-08 06:56N 54°58' W 005°01'0 0.0
2017-Dec-08 06:29N 54°58' W 005°01'0 0.0
2017-Dec-08 05:56N 54°58' W 005°01'5 8.9
2017-Dec-08 05:23N 55°02' W 005°06'820.3
2017-Dec-08 05:00N 54°59' W 005°19'1020.0
2017-Dec-08 04:30N 54°54' W 005°35'816.7
2017-Dec-08 04:00N 54°51' W 005°48'0 0.2
2017-Dec-08 03:27N 54°51' W 005°48'0 0.0
2017-Dec-08 03:00N 54°51' W 005°48'0 0.0
2017-Dec-08 02:27N 54°51' W 005°48'0 0.0
2017-Dec-08 01:58N 54°51' W 005°48'3 7.0
2017-Dec-08 01:31N 54°53' W 005°43'1019.7
2017-Dec-08 01:01N 54°57' W 005°28'1020.0
2017-Dec-08 00:31N 55°01' W 005°12'713.6
2017-Dec-08 00:00N 54°58' W 005°02'0 0.9
2017-Dec-07 23:29N 54°58' W 005°01'0 0.0
2017-Dec-07 22:50N 54°58' W 005°01'0 0.0
2017-Dec-07 22:28N 54°58' W 005°01'2811.9
2017-Dec-07 20:08N 54°51' W 005°48'0 1.1
2017-Dec-07 20:00N 54°51' W 005°48'0 0.0
2017-Dec-07 19:30N 54°51' W 005°48'0 0.0
2017-Dec-07 19:00N 54°51' W 005°48'0 0.0
2017-Dec-07 18:30N 54°51' W 005°48'612.5
2017-Dec-07 18:00N 54°54' W 005°39'1019.4
2017-Dec-07 17:30N 54°59' W 005°24'918.1
2017-Dec-07 17:00N 55°02' W 005°09'612.8
2017-Dec-07 16:30N 54°58' W 005°01'0 0.0
2017-Dec-07 16:00N 54°58' W 005°01'0 0.0
2017-Dec-07 15:30N 54°58' W 005°01'5 8.6
2017-Dec-07 14:54N 55°02' W 005°07'820.4
2017-Dec-07 14:30N 54°59' W 005°20'1020.3
2017-Dec-07 14:00N 54°55' W 005°37'815.7
2017-Dec-07 13:30N 54°51' W 005°48'0 0.0
2017-Dec-07 12:58N 54°51' W 005°48'0 0.0
2017-Dec-07 12:29N 54°51' W 005°48'5 9.9
2017-Dec-07 12:00N 54°53' W 005°41'1019.6
2017-Dec-07 11:30N 54°58' W 005°26'918.2
2017-Dec-07 11:01N 55°02' W 005°12'714.0
2017-Dec-07 10:31N 54°58' W 005°01'0 0.3
2017-Dec-07 09:46N 54°58' W 005°01'0 0.0
2017-Dec-07 09:29N 54°58' W 005°01'610.1
2017-Dec-07 08:54N 55°02' W 005°09'616.5
2017-Dec-07 08:31N 54°59' W 005°19'918.4
2017-Dec-07 08:01N 54°55' W 005°33'918.1
2017-Dec-07 07:30N 54°51' W 005°48'1 1.2
2017-Dec-07 07:00N 54°51' W 005°48'0 0.0
2017-Dec-07 06:30N 54°51' W 005°48'0 0.0
2017-Dec-07 06:00N 54°51' W 005°48'3 6.6
2017-Dec-07 05:30N 54°53' W 005°43'1121.2
2017-Dec-07 05:00N 54°58' W 005°27'1119.9
2017-Dec-07 04:28N 55°02' W 005°10'613.6
2017-Dec-07 04:00N 54°58' W 005°01'0 0.0
2017-Dec-07 03:30N 54°58' W 005°01'0 0.0
2017-Dec-07 03:00N 54°58' W 005°01'0 0.0
2017-Dec-07 02:30N 54°58' W 005°01'0 0.0
2017-Dec-07 01:58N 54°58' W 005°01'6 8.5
2017-Dec-07 01:17N 55°02' W 005°08'621.6
2017-Dec-07 01:00N 54°59' W 005°18'1121.2
2017-Dec-07 00:30N 54°54' W 005°35'816.7
2017-Dec-07 00:00N 54°51' W 005°48'0 0.0
2017-Dec-06 23:30N 54°51' W 005°48'0 0.0
2017-Dec-06 23:00N 54°51' W 005°48'0 0.0
2017-Dec-06 22:30N 54°51' W 005°48'0 0.0
2017-Dec-06 22:00N 54°51' W 005°48'510.7
2017-Dec-06 21:30N 54°54' W 005°40'918.9
2017-Dec-06 21:00N 54°58' W 005°26'  
2017-Dec-04 10:29N 54°51' W 005°48'0 0.4
2017-Dec-04 09:59N 54°51' W 005°48'0 0.0
2017-Dec-04 09:29N 54°51' W 005°48'3 5.9
2017-Dec-04 09:00N 54°53' W 005°44'917.2
2017-Dec-04 08:30N 54°56' W 005°30'917.9
2017-Dec-04 08:00N 55°00' W 005°16'814.0
2017-Dec-04 07:27N 54°59' W 005°03'2 4.0
2017-Dec-04 07:00N 54°58' W 005°01'0 0.0
2017-Dec-04 06:30N 54°58' W 005°01'0 0.2
2017-Dec-04 05:59N 54°58' W 005°01'510.2
2017-Dec-04 05:28N 55°01' W 005°07'817.5
2017-Dec-04 05:01N 54°58' W 005°20'1019.0
2017-Dec-04 04:30N 54°54' W 005°35'816.0
2017-Dec-04 04:01N 54°51' W 005°48'0 0.2
2017-Dec-04 03:28N 54°51' W 005°48'0 0.0
2017-Dec-04 02:55N 54°51' W 005°48'0 0.0
2017-Dec-04 02:22N 54°51' W 005°48'0 0.0
2017-Dec-04 01:58N 54°51' W 005°48'0 0.0
2017-Dec-04 01:28N 54°51' W 005°48'0 0.0
2017-Dec-04 01:01N 54°51' W 005°48'611.1
2017-Dec-04 00:28N 54°54' W 005°39'919.3
2017-Dec-04 00:01N 54°58' W 005°25'1018.0
2017-Dec-03 23:26N 55°02' W 005°08'512.2
2017-Dec-03 23:01N 54°58' W 005°02'1 1.0
2017-Dec-03 22:24N 54°58' W 005°01'0 0.0
2017-Dec-03 21:59N 54°58' W 005°01'5 9.4
2017-Dec-03 21:26N 55°01' W 005°07'716.9
2017-Dec-03 21:00N 54°58' W 005°19'918.2
2017-Dec-03 20:30N 54°54' W 005°33'918.7
2017-Dec-03 20:01N 54°51' W 005°48'0 0.2
2017-Dec-03 19:26N 54°51' W 005°48'0 0.0
2017-Dec-03 18:59N 54°51' W 005°48'0 0.0
2017-Dec-03 18:29N 54°51' W 005°48'3 6.8
2017-Dec-03 18:01N 54°53' W 005°44'917.5
2017-Dec-03 17:30N 54°57' W 005°30'917.8
2017-Dec-03 17:00N 55°00' W 005°16'713.5
2017-Dec-03 16:27N 54°59' W 005°03'2 1.1
2017-Dec-03 14:56N 54°58' W 005°01'610.4
2017-Dec-03 14:23N 55°02' W 005°08'820.7
2017-Dec-03 14:00N 54°58' W 005°20'1020.4
2017-Dec-03 13:30N 54°54' W 005°37'714.4
2017-Dec-03 13:00N 54°51' W 005°48'0 0.0
2017-Dec-03 12:29N 54°51' W 005°48'0 0.0
2017-Dec-03 11:59N 54°51' W 005°48'0 0.0
2017-Dec-03 11:29N 54°51' W 005°48'0 0.0
2017-Dec-03 10:59N 54°51' W 005°48'0 0.0
2017-Dec-03 10:29N 54°51' W 005°48'0 0.0
2017-Dec-03 09:59N 54°51' W 005°48'0 0.0
2017-Dec-03 09:29N 54°51' W 005°48'4 8.5
2017-Dec-03 08:59N 54°53' W 005°42'817.6
2017-Dec-03 08:30N 54°56' W 005°28'918.1
2017-Dec-03 08:00N 55°01' W 005°14'712.7
2017-Dec-03 07:28N 54°59' W 005°03'1 1.2
2017-Dec-03 06:13N 54°58' W 005°01'0 0.0
2017-Dec-03 05:31N 54°58' W 005°01'0 0.0
2017-Dec-03 05:13N 54°58' W 005°01'0 0.0
2017-Dec-03 04:55N 54°58' W 005°01'0 0.0
2017-Dec-03 04:19N 54°58' W 005°01'0 0.0
2017-Dec-03 03:49N 54°58' W 005°01'0 0.0
2017-Dec-03 03:19N 54°58' W 005°01'0 0.0
2017-Dec-03 02:55N 54°58' W 005°01'0 0.0
2017-Dec-03 01:43N 54°58' W 005°01'0 0.0
2017-Dec-03 01:25N 54°58' W 005°01'0 0.0
2017-Dec-02 21:56N 54°58' W 005°01'713.7
2017-Dec-02 21:27N 55°01' W 005°11'818.1
2017-Dec-02 21:00N 54°57' W 005°23'1020.1
2017-Dec-02 20:30N 54°53' W 005°40'510.3
2017-Dec-02 19:59N 54°51' W 005°48'0 0.0
2017-Dec-02 19:29N 54°51' W 005°48'0 0.0
2017-Dec-02 18:56N 54°51' W 005°48'0 0.0
2017-Dec-02 18:29N 54°51' W 005°48'2 3.3
2017-Dec-02 18:00N 54°52' W 005°47'1019.2
2017-Dec-02 17:28N 54°56' W 005°31'920.0
2017-Dec-02 17:00N 54°60' W 005°16'714.7
2017-Dec-02 16:30N 54°59' W 005°03'2 3.1
2017-Dec-02 15:57N 54°58' W 005°01'0 0.0
2017-Dec-02 15:27N 54°58' W 005°01'5 9.1
2017-Dec-02 14:53N 55°02' W 005°07'717.1
2017-Dec-02 14:30N 54°59' W 005°17'917.3
2017-Dec-02 14:00N 54°55' W 005°31'1017.6
2017-Dec-02 13:27N 54°52' W 005°47'1 2.6
2017-Dec-02 12:58N 54°51' W 005°48'0 0.0
2017-Dec-02 12:28N 54°51' W 005°48'4 7.4
2017-Dec-02 11:59N 54°53' W 005°43'818.1
2017-Dec-02 11:31N 54°57' W 005°30'917.8
2017-Dec-02 11:00N 55°00' W 005°15'714.0
2017-Dec-02 10:28N 54°59' W 005°02'1 1.2
2017-Dec-02 09:19N 54°58' W 005°01'611.5
2017-Dec-02 08:49N 55°02' W 005°09'617.7
2017-Dec-02 08:30N 54°59' W 005°17'918.2
2017-Dec-02 08:00N 54°55' W 005°31'1019.2
2017-Dec-02 07:30N 54°52' W 005°47'1 2.1
2017-Dec-02 07:00N 54°51' W 005°48'0 0.0
2017-Dec-02 06:30N 54°51' W 005°48'0 0.0
2017-Dec-02 06:00N 54°51' W 005°48'611.4
2017-Dec-02 05:30N 54°54' W 005°40'1019.8
2017-Dec-02 05:00N 54°58' W 005°24'1020.3
2017-Dec-02 04:30N 55°02' W 005°08'510.0
2017-Dec-02 04:00N 54°58' W 005°02'1 1.1
2017-Dec-02 03:30N 54°58' W 005°01'0 0.0
2017-Dec-02 03:00N 54°58' W 005°01'0 0.0
2017-Dec-02 02:31N 54°58' W 005°01'0 0.0
2017-Dec-02 02:01N 54°58' W 005°01'5 9.4
2017-Dec-02 01:29N 55°02' W 005°06'918.2
2017-Dec-02 01:00N 54°58' W 005°20'918.5
2017-Dec-02 00:30N 54°54' W 005°35'816.0
2017-Dec-02 00:01N 54°51' W 005°48'0 0.2
2017-Dec-01 23:30N 54°51' W 005°48'0 0.0
2017-Dec-01 23:00N 54°51' W 005°48'0 0.0
2017-Dec-01 22:30N 54°51' W 005°48'0 0.0
2017-Dec-01 22:00N 54°51' W 005°48'4 8.3
2017-Dec-01 21:31N 54°53' W 005°42'917.5
2017-Dec-01 21:01N 54°57' W 005°28'917.7
2017-Dec-01 20:30N 55°01' W 005°14'714.1
2017-Dec-01 20:00N 54°59' W 005°03'1 2.5
2017-Dec-01 19:26N 54°58' W 005°01'0 0.0
2017-Dec-01 18:56N 54°58' W 005°01'0 0.0
2017-Dec-01 18:27N 54°58' W 005°01'510.0
2017-Dec-01 17:55N 55°01' W 005°08'717.0
2017-Dec-01 17:30N 54°59' W 005°18'918.1
2017-Dec-01 17:00N 54°55' W 005°33'  

Dump ship's entire track history